Home   Weather   USA   Houston   Past weeks
Flag for USA

Past Weather in Houston, Texas, USA — January 2022

Currently: 87 °F. Thunderstorms. Broken clouds. (Weather station: Houston Hobby Airport, USA). See more current weather

January 2022 Weather in Houston — Graph

°F

High & Low Weather Summary for January 2022

 TemperatureHumidityPressure
High85 °F (Jan 1, 12:53 pm)97% (Jan 31, 6:53 pm)30.59 "Hg (Jan 31, 6:53 pm)
Low34 °F (Jan 3, 5:53 am)20% (Jan 17, 2:53 pm)29.66 "Hg (Jan 1, 2:53 pm)
Average55 °F63%30.16 "Hg
* Reported Jan 1 12:53 am — Jan 31 11:53 pm, Houston. Weather by CustomWeather, © 2022

Note: Actual official high and low records may vary slightly from our data, if they occured in-between our weather recording intervals... More about our weather records

Houston Weather History for January 1, 2022

Scroll right to see more
 ConditionsComfort  
Time TempWeatherWind HumidityBarometerVisibility
12:53 am
Sat, Jan 1
76 °FMostly cloudy.15 mph82%29.75 "Hg7 mi
1:53 am76 °FOvercast.14 mph82%29.73 "Hg9 mi
3:10 am75 °FMostly cloudy.18 mph85%29.69 "Hg10 mi
3:53 am76 °FPartly cloudy.17 mph82%29.70 "Hg9 mi
4:53 am75 °FPartly cloudy.18 mph82%29.69 "Hg9 mi
5:53 am76 °FPassing clouds.12 mph82%29.69 "Hg9 mi
6:53 am76 °FPassing clouds.14 mph82%29.69 "Hg10 mi
7:53 am77 °FPartly sunny.18 mph79%29.72 "Hg8 mi
8:53 am78 °FPartly sunny.18 mph76%29.73 "Hg9 mi
9:53 am79 °FLight rain. Broken clouds.20 mph74%29.77 "Hg9 mi
10:53 am82 °FBroken clouds.20 mph65%29.75 "Hg10 mi
11:24 am82 °FPartly sunny.16 mph65%29.72 "Hg10 mi
11:53 am82 °FBroken clouds.21 mph65%29.72 "Hg10 mi
12:19 pm82 °FPartly sunny.16 mph65%29.70 "Hg10 mi
12:53 pm85 °FBroken clouds.21 mph59%29.69 "Hg10 mi
1:53 pm85 °FPartly sunny.15 mph57%29.67 "Hg10 mi
2:53 pm84 °FPartly sunny.10 mph59%29.66 "Hg10 mi
3:53 pm84 °FPartly sunny.12 mph59%29.67 "Hg9 mi
4:53 pm82 °FPartly sunny.9 mph65%29.67 "Hg10 mi
5:53 pm79 °FPassing clouds.10 mph72%29.68 "Hg10 mi
6:53 pm77 °FPassing clouds.10 mph79%29.71 "Hg8 mi
7:53 pm76 °FPassing clouds.7 mph82%29.72 "Hg7 mi
8:53 pm74 °FPassing clouds.5 mph88%29.75 "Hg6 mi
9:53 pm74 °FHigh level clouds.No wind88%29.77 "Hg6 mi
10:53 pm73 °FMostly cloudy.3 mph88%29.77 "Hg7 mi
11:53 pm71 °FPassing clouds.3 mph90%29.78 "Hg8 mi
Weather by CustomWeather, © 2022

See weather overview